createdAt,value
2023-05-05T00:00:24.989Z,11.48
2023-05-05T00:02:19.590Z,11.51
2023-05-05T00:07:34.284Z,11.44
2023-05-05T00:11:43.793Z,11.35
2023-05-05T00:13:41.891Z,11.37
2023-05-05T00:19:33.753Z,11.41
2023-05-05T00:20:57.361Z,11.35
2023-05-05T00:24:03.920Z,11.25
2023-05-05T01:25:03.174Z,11.00
2023-05-05T01:53:45.039Z,10.79
2023-05-05T02:13:01.040Z,10.78
2023-05-05T02:14:05.322Z,10.74
2023-05-05T02:15:50.349Z,10.74
2023-05-05T02:17:04.456Z,10.73
2023-05-05T02:19:43.251Z,10.77
2023-05-05T02:25:26.850Z,10.71
2023-05-05T02:26:29.808Z,10.72
2023-05-05T02:27:46.015Z,10.70
2023-05-05T02:39:07.520Z,10.45
2023-05-05T02:40:11.581Z,10.48
2023-05-05T02:41:30.150Z,10.51
2023-05-05T02:42:44.591Z,10.49
2023-05-05T02:43:49.284Z,10.54
2023-05-05T02:45:04.753Z,10.57
2023-05-05T02:46:21.874Z,10.59
2023-05-05T02:47:34.315Z,10.61
2023-05-05T02:48:57.738Z,10.63
2023-05-05T02:51:13.536Z,10.64
2023-05-05T02:52:35.877Z,10.63
2023-05-05T02:53:44.069Z,10.60
2023-05-05T03:05:22.836Z,10.45
2023-05-05T03:06:45.780Z,10.50
2023-05-05T03:08:36.531Z,10.57
2023-05-05T03:13:18.118Z,10.44
2023-05-05T03:14:24.942Z,10.51
2023-05-05T03:15:42.868Z,10.57
2023-05-05T03:16:51.071Z,10.62
2023-05-05T03:17:57.883Z,10.60
2023-05-05T03:47:26.295Z,10.18
2023-05-05T03:50:57.048Z,10.07
2023-05-05T03:52:17.838Z,10.15
2023-05-05T04:02:56.375Z,10.08
2023-05-05T04:03:58.194Z,10.08
2023-05-05T04:05:07.269Z,10.11
2023-05-05T04:06:21.422Z,10.10
2023-05-05T04:07:25.515Z,10.20
2023-05-05T04:08:30.522Z,10.25
2023-05-05T04:09:44.589Z,10.23
2023-05-05T04:11:25.556Z,10.23
2023-05-05T04:12:27.301Z,10.16
2023-05-05T04:13:34.869Z,9.98
2023-05-05T04:14:51.288Z,9.94
2023-05-05T04:16:01.739Z,9.98
2023-05-05T04:20:18.051Z,10.15
2023-05-05T04:21:25.297Z,10.24
2023-05-05T04:22:34.654Z,10.30
2023-05-05T04:23:46.575Z,10.36
2023-05-05T04:24:50.922Z,10.40
2023-05-05T04:26:10.805Z,10.41
2023-05-05T04:27:12.774Z,10.44
2023-05-05T04:28:14.803Z,10.47
2023-05-05T04:29:16.600Z,10.51
2023-05-05T04:30:18.210Z,10.55
2023-05-05T04:31:19.883Z,10.59
2023-05-05T04:32:21.796Z,10.63
2023-05-05T04:33:23.640Z,10.62
2023-05-05T04:34:25.173Z,10.64
2023-05-05T04:35:26.711Z,10.66
2023-05-05T04:36:29.766Z,10.72
2023-05-05T04:37:34.409Z,10.73
2023-05-05T04:38:36.920Z,10.76
2023-05-05T04:39:38.571Z,10.80
2023-05-05T04:40:41.319Z,10.86
2023-05-05T04:41:45.404Z,10.88
2023-05-05T04:42:47.369Z,10.87
2023-05-05T04:48:11.880Z,10.99
2023-05-05T04:49:29.387Z,10.96
2023-05-05T04:50:32.870Z,11.01
2023-05-05T04:51:34.562Z,11.09
2023-05-05T04:52:36.145Z,11.15
2023-05-05T04:53:37.650Z,11.16
2023-05-05T04:54:39.179Z,11.18
2023-05-05T04:55:40.805Z,11.21
2023-05-05T05:10:23.174Z,11.54
2023-05-05T05:11:25.019Z,11.55
2023-05-05T05:16:20.791Z,11.73
2023-05-05T05:18:07.151Z,11.81
2023-05-05T05:19:08.745Z,11.83
2023-05-05T05:20:10.857Z,11.86
2023-05-05T05:21:12.548Z,11.89
2023-05-05T05:22:14.041Z,11.94
2023-05-05T05:23:15.479Z,11.99
2023-05-05T05:24:16.962Z,12.05
2023-05-05T05:25:18.413Z,12.11
2023-05-05T05:26:20.099Z,12.09
2023-05-05T05:27:21.604Z,12.04
2023-05-05T05:28:31.681Z,11.98
2023-05-05T05:29:34.180Z,12.06
2023-05-05T05:30:35.803Z,12.12
2023-05-05T05:31:43.422Z,12.21
2023-05-05T05:32:45.187Z,12.25
2023-05-05T05:33:48.531Z,12.32
2023-05-05T05:34:50.115Z,12.36
2023-05-05T05:35:52.344Z,12.44
2023-05-05T05:36:54.529Z,12.46
2023-05-05T05:37:56.908Z,12.50
2023-05-05T05:38:58.970Z,12.54
2023-05-05T05:40:01.162Z,12.55
2023-05-05T05:41:07.941Z,12.59
2023-05-05T05:42:10.426Z,12.61
2023-05-05T05:43:12.475Z,12.65
2023-05-05T05:44:14.138Z,12.67
2023-05-05T05:45:15.738Z,12.73
2023-05-05T05:46:17.373Z,12.81
2023-05-05T05:47:19.271Z,12.89
2023-05-05T05:48:22.154Z,12.94
2023-05-05T05:49:25.577Z,12.97
2023-05-05T05:50:36.839Z,13.02
2023-05-05T05:51:43.106Z,13.10
2023-05-05T05:52:44.923Z,13.13
2023-05-05T05:54:18.291Z,13.19
2023-05-05T06:00:04.871Z,13.45
2023-05-05T06:01:09.514Z,13.53
2023-05-05T06:02:21.152Z,13.57
2023-05-05T06:03:55.517Z,13.64
2023-05-05T06:05:01.250Z,13.69
2023-05-05T06:06:16.528Z,13.77
2023-05-05T06:07:24.649Z,13.83
2023-05-05T06:08:29.027Z,13.91
2023-05-05T06:09:42.639Z,13.98
2023-05-05T06:10:56.171Z,14.03
2023-05-05T06:12:00.943Z,14.06
2023-05-05T06:13:02.838Z,14.09
2023-05-05T06:14:04.718Z,14.11
2023-05-05T06:15:07.027Z,14.16
2023-05-05T06:16:08.988Z,14.17
2023-05-05T06:17:10.894Z,14.20
2023-05-05T06:18:30.453Z,14.25
2023-05-05T06:24:18.245Z,14.52
2023-05-05T06:25:37.186Z,14.59
2023-05-05T06:27:11.458Z,14.63
2023-05-05T06:28:52.405Z,14.74
2023-05-05T06:30:14.931Z,14.81
2023-05-05T06:31:24.213Z,14.89
2023-05-05T06:32:36.817Z,14.98
2023-05-05T06:33:41.347Z,15.03
2023-05-05T06:34:48.525Z,15.10
2023-05-05T06:36:00.754Z,15.17
2023-05-05T06:37:21.167Z,15.19
2023-05-05T06:38:25.488Z,15.24
2023-05-05T06:39:33.155Z,15.26
2023-05-05T06:40:59.945Z,15.31
2023-05-05T06:42:39.757Z,15.44
2023-05-05T06:43:44.446Z,15.55
2023-05-05T06:44:46.515Z,15.62
2023-05-05T06:45:57.273Z,15.59
2023-05-05T06:47:15.507Z,15.60
2023-05-05T06:48:17.166Z,15.66
2023-05-05T06:49:58.672Z,15.73
2023-05-05T08:16:06.042Z,20.26
2023-05-05T08:17:58.897Z,20.34
2023-05-05T08:23:57.568Z,20.51
2023-05-05T08:34:29.376Z,20.84
2023-05-05T08:41:41.426Z,20.95
2023-05-05T08:42:48.891Z,21.03
2023-05-05T08:43:57.014Z,21.06
2023-05-05T08:45:22.292Z,21.09
2023-05-05T08:47:32.336Z,21.19
2023-05-05T08:48:50.456Z,21.18
2023-05-05T08:50:25.383Z,21.15
2023-05-05T08:51:51.729Z,21.12
2023-05-05T08:53:32.674Z,21.16
2023-05-05T08:54:49.731Z,21.20
2023-05-05T08:55:53.071Z,21.21
2023-05-05T08:57:07.741Z,21.21
2023-05-05T08:58:20.539Z,21.18
2023-05-05T08:59:39.174Z,21.16
2023-05-05T09:01:01.848Z,21.19
2023-05-05T09:02:24.951Z,21.16
2023-05-05T09:03:39.751Z,21.07
2023-05-05T09:04:45.547Z,20.96
2023-05-05T09:08:11.712Z,20.95
2023-05-05T09:11:05.108Z,21.00
2023-05-05T09:12:35.494Z,21.03
2023-05-05T09:13:57.706Z,21.01
2023-05-05T09:19:31.580Z,20.84
2023-05-05T09:20:44.697Z,20.85
2023-05-05T09:22:46.495Z,20.87
2023-05-05T09:24:52.944Z,20.93
2023-05-05T09:26:19.758Z,20.96
2023-05-05T09:27:35.254Z,20.94
2023-05-05T09:30:53.917Z,20.92
2023-05-05T09:32:24.924Z,20.97
2023-05-05T09:36:03.505Z,21.08
2023-05-05T09:37:08.070Z,21.10
2023-05-05T09:38:45.400Z,21.09
2023-05-05T09:45:03.199Z,21.22
2023-05-05T09:51:47.513Z,21.31
2023-05-05T09:57:19.520Z,21.54
2023-05-05T09:59:56.987Z,21.61
2023-05-05T10:05:32.663Z,21.73
2023-05-05T10:06:53.881Z,21.76
2023-05-05T10:15:20.239Z,21.86
2023-05-05T10:34:24.475Z,23.18
2023-05-05T10:37:27.261Z,23.51
2023-05-05T10:38:34.561Z,23.58
2023-05-05T10:53:31.396Z,24.27
2023-05-05T10:57:12.864Z,24.21
2023-05-05T10:58:59.723Z,24.14
2023-05-05T11:01:12.491Z,24.00
2023-05-05T11:02:29.430Z,23.89
2023-05-05T11:03:45.752Z,23.89
2023-05-05T11:05:54.840Z,23.89
2023-05-05T11:07:45.065Z,24.00
2023-05-05T11:09:19.912Z,24.06
2023-05-05T11:10:58.118Z,24.07
2023-05-05T11:13:41.067Z,24.11
2023-05-05T11:14:42.882Z,24.10
2023-05-05T11:18:17.340Z,24.09
2023-05-05T11:20:01.842Z,24.06
2023-05-05T11:22:07.422Z,23.98
2023-05-05T11:24:44.877Z,23.83
2023-05-05T11:26:55.936Z,23.74
2023-05-05T11:28:09.059Z,23.69
2023-05-05T11:30:22.977Z,23.68
2023-05-05T11:34:07.526Z,23.64
2023-05-05T11:35:47.198Z,23.67
2023-05-05T12:12:20.252Z,22.66
2023-05-05T12:59:58.243Z,22.07
2023-05-05T13:06:48.168Z,22.03
2023-05-05T13:08:00.583Z,22.01
2023-05-05T13:09:05.630Z,22.02
2023-05-05T13:10:13.507Z,22.02
2023-05-05T13:11:15.022Z,22.01
2023-05-05T13:12:23.323Z,22.03
2023-05-05T13:13:26.532Z,22.03
2023-05-05T13:14:28.292Z,22.06
2023-05-05T13:15:29.971Z,22.07
2023-05-05T13:16:32.322Z,22.09
2023-05-05T13:17:34.864Z,22.09
2023-05-05T13:18:49.890Z,22.10
2023-05-05T13:19:52.251Z,22.13
2023-05-05T13:20:54.280Z,22.15
2023-05-05T13:21:59.776Z,22.17
2023-05-05T13:23:02.099Z,22.16
2023-05-05T13:25:10.000Z,22.19
2023-05-05T13:26:13.560Z,22.16
2023-05-05T13:27:17.243Z,22.12
2023-05-05T13:28:18.758Z,22.10
2023-05-05T13:29:20.308Z,22.10
2023-05-05T13:30:21.906Z,22.11
2023-05-05T13:31:29.107Z,22.12
2023-05-05T13:32:31.387Z,22.11
2023-05-05T13:33:45.460Z,22.11
2023-05-05T13:34:47.035Z,22.09
2023-05-05T13:35:48.816Z,22.09
2023-05-05T13:36:50.360Z,22.08
2023-05-05T13:37:52.365Z,22.06
2023-05-05T13:38:54.069Z,22.02
2023-05-05T13:39:59.388Z,22.04
2023-05-05T13:41:01.036Z,22.02
2023-05-05T13:42:03.025Z,21.98
2023-05-05T13:43:04.665Z,21.96
2023-05-05T13:44:06.256Z,21.94
2023-05-05T13:45:08.402Z,21.91
2023-05-05T13:46:19.721Z,21.90
2023-05-05T13:47:21.797Z,21.82
2023-05-05T13:48:24.074Z,21.78
2023-05-05T13:49:25.845Z,21.77
2023-05-05T13:50:27.487Z,21.75
2023-05-05T13:51:30.085Z,21.72
2023-05-05T13:52:33.146Z,21.71
2023-05-05T13:53:35.320Z,21.68
2023-05-05T13:54:36.894Z,21.66
2023-05-05T13:55:38.642Z,21.65
2023-05-05T13:56:40.143Z,21.64
2023-05-05T13:57:42.209Z,21.63
2023-05-05T13:58:44.379Z,21.61
2023-05-05T13:59:45.951Z,21.61
2023-05-05T14:00:47.767Z,21.61
2023-05-05T14:01:49.587Z,21.59
2023-05-05T14:02:51.694Z,21.58
2023-05-05T14:03:54.942Z,21.56
2023-05-05T14:04:58.488Z,21.56
2023-05-05T14:06:00.009Z,21.54
2023-05-05T14:07:01.655Z,21.53
2023-05-05T14:08:03.688Z,21.52
2023-05-05T14:09:06.499Z,21.51
2023-05-05T14:10:09.178Z,21.48
2023-05-05T14:11:10.803Z,21.43
2023-05-05T14:12:12.449Z,21.42
2023-05-05T14:13:15.517Z,21.39
2023-05-05T14:14:17.974Z,21.39
2023-05-05T14:15:19.789Z,21.37
2023-05-05T14:16:21.361Z,21.36
2023-05-05T14:17:23.433Z,21.34
2023-05-05T14:18:25.687Z,21.33
2023-05-05T14:19:27.625Z,21.33
2023-05-05T14:20:29.253Z,21.32
2023-05-05T14:21:33.354Z,21.31
2023-05-05T14:22:34.895Z,21.31
2023-05-05T14:23:36.903Z,21.26
2023-05-05T14:24:39.097Z,21.23
2023-05-05T14:25:40.740Z,21.22
2023-05-05T14:26:42.284Z,21.23
2023-05-05T14:27:44.322Z,21.24
2023-05-05T14:28:49.574Z,21.21
2023-05-05T14:29:51.527Z,21.21
2023-05-05T14:30:53.032Z,21.20
2023-05-05T14:31:54.615Z,21.19
2023-05-05T14:32:56.395Z,21.18
2023-05-05T14:33:58.662Z,21.17
2023-05-05T14:35:00.393Z,21.15
2023-05-05T14:36:01.969Z,21.15
2023-05-05T14:37:03.673Z,21.15
2023-05-05T14:38:05.355Z,21.11
2023-05-05T14:39:07.134Z,21.10
2023-05-05T14:40:09.400Z,21.09
2023-05-05T14:41:11.742Z,21.04
2023-05-05T14:42:13.347Z,21.00
2023-05-05T14:43:14.842Z,20.99
2023-05-05T14:44:16.552Z,20.93
2023-05-05T14:45:18.118Z,20.87
2023-05-05T14:46:20.246Z,20.89
2023-05-05T14:47:21.708Z,20.87
2023-05-05T14:48:23.368Z,20.88
2023-05-05T14:49:27.166Z,20.84
2023-05-05T14:50:28.923Z,20.84
2023-05-05T14:51:31.480Z,20.85
2023-05-05T14:52:33.044Z,20.82
2023-05-05T14:53:34.859Z,20.78
2023-05-05T14:54:36.500Z,20.79
2023-05-05T14:55:38.352Z,20.81
2023-05-05T14:56:40.115Z,20.84
2023-05-05T14:57:41.804Z,20.83
2023-05-05T14:58:43.817Z,20.84
2023-05-05T14:59:45.892Z,20.83
2023-05-05T15:00:47.954Z,20.82
2023-05-05T15:01:49.640Z,20.86
2023-05-05T15:02:51.343Z,20.89
2023-05-05T15:03:54.084Z,20.93
2023-05-05T15:04:55.712Z,20.95
2023-05-05T15:05:58.110Z,21.00
2023-05-05T15:06:59.722Z,21.04
2023-05-05T15:08:01.299Z,21.09
2023-05-05T15:09:02.909Z,21.15
2023-05-05T15:10:05.106Z,21.17
2023-05-05T15:11:07.307Z,21.15
2023-05-05T15:13:24.494Z,21.16
2023-05-05T15:14:45.344Z,21.17
2023-05-05T15:15:47.410Z,21.15
2023-05-05T15:16:48.932Z,21.18
2023-05-05T15:17:50.524Z,21.21
2023-05-05T15:18:52.240Z,21.25
2023-05-05T15:19:53.865Z,21.32
2023-05-05T15:20:55.516Z,21.31
2023-05-05T15:21:57.058Z,21.36
2023-05-05T15:22:58.500Z,21.40
2023-05-05T15:23:59.989Z,21.42
2023-05-05T15:25:01.622Z,21.47
2023-05-05T15:26:03.250Z,21.41
2023-05-05T15:27:04.824Z,21.48
2023-05-05T15:28:06.436Z,21.55
2023-05-05T15:29:07.964Z,21.57
2023-05-05T15:30:11.249Z,21.59
2023-05-05T15:31:15.633Z,21.54
2023-05-05T15:32:17.198Z,21.55
2023-05-05T15:33:18.750Z,21.56
2023-05-05T15:34:20.752Z,21.57
2023-05-05T15:35:25.422Z,21.56
2023-05-05T15:36:28.694Z,21.55
2023-05-05T15:37:30.300Z,21.52
2023-05-05T15:38:31.883Z,21.52
2023-05-05T15:39:33.396Z,21.50
2023-05-05T15:40:35.223Z,21.46
2023-05-05T15:41:36.789Z,21.44
2023-05-05T15:42:39.140Z,21.39
2023-05-05T15:43:40.827Z,21.39
2023-05-05T15:44:42.367Z,21.39
2023-05-05T15:45:44.048Z,21.35
2023-05-05T15:46:49.821Z,21.30
2023-05-05T15:47:52.937Z,21.30
2023-05-05T15:48:54.489Z,21.30
2023-05-05T15:49:56.178Z,21.25
2023-05-05T15:50:57.639Z,21.25
2023-05-05T15:51:59.217Z,21.27
2023-05-05T15:53:00.865Z,21.26
2023-05-05T15:54:02.408Z,21.26
2023-05-05T15:55:04.302Z,21.23
2023-05-05T15:56:06.010Z,21.20
2023-05-05T15:57:08.123Z,21.17
2023-05-05T15:58:09.816Z,21.13
2023-05-05T15:59:11.388Z,21.11
2023-05-05T16:00:13.948Z,21.13
2023-05-05T16:01:15.506Z,21.11
2023-05-05T16:02:17.123Z,21.08
2023-05-05T16:03:18.802Z,21.02
2023-05-05T16:04:24.111Z,20.99
2023-05-05T16:05:25.782Z,20.99
2023-05-05T16:06:27.995Z,20.96
2023-05-05T16:07:29.742Z,20.89
2023-05-05T16:08:32.227Z,20.81
2023-05-05T16:09:36.426Z,20.77
2023-05-05T16:10:38.092Z,20.76
2023-05-05T16:11:39.688Z,20.74
2023-05-05T16:12:41.354Z,20.73
2023-05-05T16:13:43.028Z,20.73
2023-05-05T16:14:44.561Z,20.69
2023-05-05T16:15:46.443Z,20.66
2023-05-05T16:16:48.242Z,20.67
2023-05-05T16:17:49.996Z,20.69
2023-05-05T16:18:51.663Z,20.66
2023-05-05T16:19:53.607Z,20.67
2023-05-05T16:20:57.720Z,20.64
2023-05-05T16:21:59.274Z,20.62
2023-05-05T16:23:00.879Z,20.62
2023-05-05T16:24:02.455Z,20.64
2023-05-05T16:25:04.380Z,20.62
2023-05-05T16:26:06.073Z,20.60
2023-05-05T16:27:07.758Z,20.57
2023-05-05T16:28:09.304Z,20.59
2023-05-05T16:29:11.555Z,20.60
2023-05-05T16:30:15.381Z,20.55
2023-05-05T16:31:17.845Z,20.54
2023-05-05T16:32:19.462Z,20.53
2023-05-05T16:33:21.122Z,20.48
2023-05-05T16:34:22.690Z,20.45
2023-05-05T16:35:24.205Z,20.46
2023-05-05T16:36:26.244Z,20.40
2023-05-05T16:37:27.919Z,20.35
2023-05-05T16:38:29.647Z,20.34
2023-05-05T16:39:33.064Z,20.31
2023-05-05T16:40:37.237Z,20.32
2023-05-05T16:41:39.473Z,20.27
2023-05-05T16:42:42.360Z,20.23
2023-05-05T16:43:46.895Z,20.20
2023-05-05T16:44:48.461Z,20.18
2023-05-05T16:45:50.036Z,20.16
2023-05-05T16:46:51.640Z,20.14
2023-05-05T16:47:55.361Z,20.12
2023-05-05T16:48:57.203Z,20.08
2023-05-05T16:49:58.722Z,20.03
2023-05-05T16:51:00.246Z,19.98
2023-05-05T16:52:02.302Z,19.98
2023-05-05T16:53:04.437Z,20.01
2023-05-05T16:54:06.117Z,19.99
2023-05-05T16:55:08.320Z,19.99
2023-05-05T16:56:13.179Z,19.95
2023-05-05T16:57:14.831Z,19.92
2023-05-05T16:58:16.452Z,19.88
2023-05-05T16:59:19.305Z,19.85
2023-05-05T17:00:20.797Z,19.81
2023-05-05T17:01:22.554Z,19.79
2023-05-05T17:02:24.227Z,19.78
2023-05-05T17:03:26.557Z,19.77
2023-05-05T17:04:28.191Z,19.77
2023-05-05T17:05:29.813Z,19.78
2023-05-05T17:06:34.181Z,19.72
2023-05-05T17:07:35.842Z,19.72
2023-05-05T17:08:37.459Z,19.71
2023-05-05T17:09:39.085Z,19.71
2023-05-05T17:10:42.587Z,19.65
2023-05-05T17:11:44.082Z,19.66
2023-05-05T17:12:45.783Z,19.66
2023-05-05T17:13:47.314Z,19.64
2023-05-05T17:14:48.807Z,19.60
2023-05-05T17:15:50.570Z,19.58
2023-05-05T17:16:53.662Z,19.54
2023-05-05T17:17:55.276Z,19.53
2023-05-05T17:18:56.934Z,19.52
2023-05-05T17:19:58.798Z,19.48
2023-05-05T17:21:00.350Z,19.51
2023-05-05T17:22:01.893Z,19.49
2023-05-05T17:23:03.582Z,19.45
2023-05-05T17:24:05.699Z,19.45
2023-05-05T17:25:08.654Z,19.47
2023-05-05T17:26:15.109Z,19.44
2023-05-05T17:27:24.440Z,19.43
2023-05-05T17:28:26.066Z,19.40
2023-05-05T17:29:27.667Z,19.39
2023-05-05T17:30:29.375Z,19.39
2023-05-05T17:31:31.040Z,19.37
2023-05-05T17:32:32.630Z,19.37
2023-05-05T17:33:34.152Z,19.37
2023-05-05T17:34:35.715Z,19.34
2023-05-05T17:35:38.566Z,19.34
2023-05-05T17:36:40.196Z,19.33
2023-05-05T17:37:41.884Z,19.34
2023-05-05T17:38:43.405Z,19.28
2023-05-05T17:39:44.932Z,19.28
2023-05-05T17:40:46.948Z,19.31
2023-05-05T17:41:48.455Z,19.30
2023-05-05T17:42:50.180Z,19.30
2023-05-05T17:43:51.983Z,19.32
2023-05-05T17:44:53.735Z,19.33
2023-05-05T17:45:55.737Z,19.32
2023-05-05T17:46:57.533Z,19.31
2023-05-05T17:47:59.258Z,19.33
2023-05-05T17:49:04.386Z,19.31
2023-05-05T17:50:08.544Z,19.29
2023-05-05T17:51:10.153Z,19.29
2023-05-05T17:52:12.852Z,19.26
2023-05-05T17:53:27.438Z,19.21
2023-05-05T17:56:05.217Z,19.13
2023-05-05T17:57:32.456Z,19.12
2023-05-05T17:58:39.244Z,19.10
2023-05-05T17:59:47.243Z,19.09
2023-05-05T18:00:48.937Z,19.07
2023-05-05T18:04:16.055Z,19.04
2023-05-05T18:12:22.979Z,18.97
2023-05-05T18:13:23.376Z,18.95
2023-05-05T18:15:13.144Z,18.96
2023-05-05T18:18:21.132Z,18.93
2023-05-05T18:20:08.112Z,18.92
2023-05-05T18:21:12.429Z,18.88
2023-05-05T18:22:17.197Z,18.88
2023-05-05T18:23:18.927Z,18.88
2023-05-05T18:25:13.040Z,18.87
2023-05-05T18:26:14.717Z,18.87
2023-05-05T18:27:16.865Z,18.87
2023-05-05T18:30:47.729Z,18.88
2023-05-05T18:31:53.047Z,18.88
2023-05-05T18:32:54.952Z,18.89
2023-05-05T18:34:16.904Z,18.89
2023-05-05T18:35:19.465Z,18.88
2023-05-05T18:36:21.274Z,18.87
2023-05-05T18:37:23.009Z,18.85
2023-05-05T18:38:24.773Z,18.83
2023-05-05T18:39:26.820Z,18.81
2023-05-05T18:40:28.413Z,18.83
2023-05-05T18:41:30.665Z,18.82
2023-05-05T18:42:32.241Z,18.82
2023-05-05T18:43:33.767Z,18.80
2023-05-05T18:44:35.724Z,18.79
2023-05-05T18:45:37.181Z,18.76
2023-05-05T18:46:38.738Z,18.74
2023-05-05T18:47:41.422Z,18.71
2023-05-05T18:48:42.961Z,18.71
2023-05-05T18:49:45.527Z,18.70
2023-05-05T18:50:47.788Z,18.68
2023-05-05T18:51:49.266Z,18.65
2023-05-05T18:52:50.848Z,18.66
2023-05-05T18:53:52.413Z,18.61
2023-05-05T18:54:53.966Z,18.58
2023-05-05T18:55:55.576Z,18.59
2023-05-05T18:56:57.401Z,18.61
2023-05-05T18:57:58.901Z,18.59
2023-05-05T18:59:00.486Z,18.53
2023-05-05T19:00:02.238Z,18.51
2023-05-05T19:01:03.836Z,18.43
2023-05-05T19:02:06.826Z,18.42
2023-05-05T19:03:17.683Z,18.43
2023-05-05T19:04:30.736Z,18.43
2023-05-05T19:05:33.220Z,18.41
2023-05-05T19:06:38.954Z,18.44
2023-05-05T19:07:43.467Z,18.45
2023-05-05T19:08:45.878Z,18.45
2023-05-05T19:10:07.429Z,18.46
2023-05-05T19:11:10.279Z,18.43
2023-05-05T19:13:45.530Z,18.42
2023-05-05T19:19:59.517Z,18.37
2023-05-05T19:21:12.238Z,18.35
2023-05-05T19:22:32.602Z,18.34
2023-05-05T19:23:36.196Z,18.34
2023-05-05T19:24:56.390Z,18.33
2023-05-05T19:26:09.382Z,18.32
2023-05-05T19:27:39.788Z,18.29
2023-05-05T19:28:43.618Z,18.24
2023-05-05T19:29:57.746Z,18.16
2023-05-05T19:31:23.979Z,18.08
2023-05-05T19:32:48.743Z,18.03
2023-05-05T19:35:57.675Z,17.88
2023-05-05T19:37:07.652Z,17.75
2023-05-05T19:38:51.859Z,17.68
2023-05-05T19:40:02.141Z,17.62
2023-05-05T19:41:03.763Z,17.56
2023-05-05T19:42:09.695Z,17.53
2023-05-05T19:43:11.874Z,17.49
2023-05-05T19:44:14.004Z,17.46
2023-05-05T19:45:16.058Z,17.45
2023-05-05T19:46:17.723Z,17.41
2023-05-05T19:47:19.664Z,17.39
2023-05-05T19:48:21.494Z,17.36
2023-05-05T19:49:36.259Z,17.35
2023-05-05T19:50:50.692Z,17.32
2023-05-05T19:53:46.374Z,17.18
2023-05-05T19:54:52.528Z,17.09
2023-05-05T19:55:54.286Z,17.03
2023-05-05T19:56:57.316Z,16.98
2023-05-05T19:57:59.076Z,16.94
2023-05-05T19:59:02.297Z,16.94
2023-05-05T20:00:04.268Z,16.92
2023-05-05T20:01:05.830Z,16.91
2023-05-05T20:02:09.691Z,16.93
2023-05-05T20:03:12.069Z,16.91
2023-05-05T20:04:13.696Z,16.92
2023-05-05T20:05:17.318Z,16.90
2023-05-05T20:06:18.987Z,16.87
2023-05-05T20:07:20.840Z,16.85
2023-05-05T20:08:22.378Z,16.85
2023-05-05T20:09:24.412Z,16.84
2023-05-05T20:10:26.810Z,16.84
2023-05-05T20:11:28.372Z,16.84
2023-05-05T20:12:30.067Z,16.76
2023-05-05T20:13:32.303Z,16.77
2023-05-05T20:14:34.030Z,16.75
2023-05-05T20:15:35.751Z,16.74
2023-05-05T20:16:39.174Z,16.77
2023-05-05T20:17:40.849Z,16.76
2023-05-05T20:18:42.371Z,16.75
2023-05-05T20:19:44.081Z,16.73
2023-05-05T20:20:45.686Z,16.72
2023-05-05T20:21:47.184Z,16.68
2023-05-05T20:22:49.647Z,16.65
2023-05-05T20:23:51.307Z,16.61
2023-05-05T20:24:53.421Z,16.61
2023-05-05T20:25:56.029Z,16.55
2023-05-05T20:26:57.768Z,16.50
2023-05-05T20:27:59.277Z,16.51
2023-05-05T20:29:01.042Z,16.52
2023-05-05T20:30:03.142Z,16.52
2023-05-05T20:31:07.769Z,16.48
2023-05-05T20:32:09.946Z,16.45
2023-05-05T20:33:11.824Z,16.43
2023-05-05T20:34:14.277Z,16.35
2023-05-05T20:35:16.411Z,16.37
2023-05-05T20:36:18.352Z,16.34
2023-05-05T20:37:22.346Z,16.32
2023-05-05T20:38:23.911Z,16.33
2023-05-05T20:39:26.161Z,16.34
2023-05-05T20:40:28.774Z,16.38
2023-05-05T20:41:30.356Z,16.38
2023-05-05T20:42:32.107Z,16.33
2023-05-05T20:43:33.989Z,16.36
2023-05-05T20:44:35.577Z,16.39
2023-05-05T20:45:37.266Z,16.37
2023-05-05T20:46:39.201Z,16.36
2023-05-05T20:47:41.493Z,16.36
2023-05-05T20:48:44.476Z,16.36
2023-05-05T20:49:46.161Z,16.37
2023-05-05T20:50:47.764Z,16.34
2023-05-05T20:51:49.584Z,16.32
2023-05-05T20:52:51.486Z,16.32
2023-05-05T20:53:53.446Z,16.33
2023-05-05T20:54:55.226Z,16.36
2023-05-05T20:55:56.754Z,16.37
2023-05-05T20:56:58.315Z,16.35
2023-05-05T20:57:59.905Z,16.32
2023-05-05T20:59:01.961Z,16.32
2023-05-05T21:00:04.254Z,16.33
2023-05-05T21:01:06.611Z,16.34
2023-05-05T21:02:08.333Z,16.33
2023-05-05T21:03:10.004Z,16.32
2023-05-05T21:04:11.676Z,16.28
2023-05-05T21:05:14.222Z,16.26
2023-05-05T21:06:15.703Z,16.28
2023-05-05T21:07:17.285Z,16.29
2023-05-05T21:08:18.912Z,16.26
2023-05-05T21:09:22.185Z,16.25
2023-05-05T21:10:23.918Z,16.19
2023-05-05T21:11:25.414Z,16.18
2023-05-05T21:12:29.384Z,16.22
2023-05-05T21:13:32.114Z,16.24
2023-05-05T21:14:34.396Z,16.25
2023-05-05T21:15:37.248Z,16.25
2023-05-05T21:16:39.462Z,16.26
2023-05-05T21:17:41.161Z,16.27
2023-05-05T21:18:46.634Z,16.23
2023-05-05T21:19:48.236Z,16.22
2023-05-05T21:20:49.696Z,16.21
2023-05-05T21:21:51.253Z,16.18
2023-05-05T21:22:53.264Z,16.16
2023-05-05T21:23:57.729Z,16.15
2023-05-05T21:25:16.920Z,16.15
2023-05-05T21:26:19.009Z,16.14
2023-05-05T21:27:21.154Z,16.15
2023-05-05T21:28:22.777Z,16.15
2023-05-05T21:29:27.621Z,16.17
2023-05-05T21:30:29.431Z,16.12
2023-05-05T21:31:31.069Z,16.11
2023-05-05T21:32:32.911Z,16.15
2023-05-05T21:33:34.488Z,16.16
2023-05-05T21:34:36.514Z,16.14
2023-05-05T21:35:38.035Z,16.14
2023-05-05T21:36:39.577Z,16.15
2023-05-05T21:37:41.595Z,16.14
2023-05-05T21:38:43.535Z,16.12
2023-05-05T21:39:45.114Z,16.13
2023-05-05T21:40:46.947Z,16.11
2023-05-05T21:41:48.487Z,16.11
2023-05-05T21:42:50.018Z,16.15
2023-05-05T21:43:51.491Z,16.14
2023-05-05T21:44:53.309Z,16.14
2023-05-05T21:46:01.119Z,16.11
2023-05-05T21:47:02.706Z,16.12
2023-05-05T21:48:04.932Z,16.11
2023-05-05T21:49:14.324Z,16.08
2023-05-05T21:50:17.256Z,16.01
2023-05-05T21:51:19.993Z,15.98
2023-05-05T21:52:25.695Z,16.00
2023-05-05T21:53:27.398Z,15.95
2023-05-05T21:54:30.057Z,15.93
2023-05-05T21:55:31.553Z,15.92
2023-05-05T21:56:33.934Z,15.95
2023-05-05T21:57:36.126Z,15.95
2023-05-05T21:58:37.637Z,15.94
2023-05-05T21:59:39.126Z,15.88
2023-05-05T22:00:42.359Z,15.87
2023-05-05T22:01:43.864Z,15.83
2023-05-05T22:02:45.534Z,15.82
2023-05-05T22:03:47.734Z,15.78
2023-05-05T22:04:52.283Z,15.76
2023-05-05T22:05:53.810Z,15.78
2023-05-05T22:06:55.454Z,15.78
2023-05-05T22:07:57.030Z,15.78
2023-05-05T22:08:58.579Z,15.81
2023-05-05T22:10:00.585Z,15.82
2023-05-05T22:11:02.116Z,15.81
2023-05-05T22:12:07.008Z,15.77
2023-05-05T22:13:10.622Z,15.77
2023-05-05T22:14:12.243Z,15.78
2023-05-05T22:15:14.395Z,15.79
2023-05-05T22:16:17.656Z,15.81
2023-05-05T22:17:19.364Z,15.82
2023-05-05T22:18:20.853Z,15.82
2023-05-05T22:19:22.460Z,15.83
2023-05-05T22:20:24.007Z,15.83
2023-05-05T22:21:27.634Z,15.82
2023-05-05T22:22:29.146Z,15.80
2023-05-05T22:23:30.883Z,15.79
2023-05-05T22:24:32.417Z,15.75
2023-05-05T22:25:33.990Z,15.72
2023-05-05T22:26:35.587Z,15.62
2023-05-05T22:27:37.341Z,15.66
2023-05-05T22:28:38.938Z,15.66
2023-05-05T22:29:40.884Z,15.67
2023-05-05T22:30:42.499Z,15.67
2023-05-05T22:31:44.120Z,15.63
2023-05-05T22:32:46.397Z,15.65
2023-05-05T22:33:47.990Z,15.62
2023-05-05T22:34:49.718Z,15.60
2023-05-05T22:35:52.095Z,15.55
2023-05-05T22:36:53.617Z,15.53
2023-05-05T22:37:55.210Z,15.52
2023-05-05T22:38:56.967Z,15.52
2023-05-05T22:39:58.471Z,15.54
2023-05-05T22:41:00.060Z,15.55
2023-05-05T22:42:01.959Z,15.57
2023-05-05T22:43:03.748Z,15.57
2023-05-05T22:44:05.605Z,15.57
2023-05-05T22:45:08.729Z,15.55
2023-05-05T22:46:10.641Z,15.55
2023-05-05T22:47:13.314Z,15.55
2023-05-05T22:48:15.108Z,15.57
2023-05-05T22:49:16.827Z,15.58
2023-05-05T22:50:19.051Z,15.56
2023-05-05T22:51:20.654Z,15.55
2023-05-05T22:52:22.260Z,15.55
2023-05-05T22:53:23.903Z,15.52
2023-05-05T22:54:25.564Z,15.51
2023-05-05T22:55:27.323Z,15.53
2023-05-05T22:56:29.142Z,15.55
2023-05-05T22:57:30.678Z,15.58
2023-05-05T22:58:32.366Z,15.59
2023-05-05T22:59:33.964Z,15.60
2023-05-05T23:00:35.880Z,15.60
2023-05-05T23:01:37.491Z,15.60
2023-05-05T23:02:39.447Z,15.60
2023-05-05T23:03:41.602Z,15.59
2023-05-05T23:04:46.421Z,15.59
2023-05-05T23:05:47.983Z,15.57
2023-05-05T23:06:49.564Z,15.51
2023-05-05T23:07:51.327Z,15.52